PWSweather.com
Personal Weather Stations
Station Observations
KMOHERMA2
Stony Hill, Hermann, MO 65041

Stony HillHermann, MO 65041

Lat: 38.527, Lon: -91.414

Elevation: 896

Station Type: Davis Vantage Pro 2

High Low Average
Temperature 31.1°F-0.5°C 6.6°F-14.1°C 22.6°F-5.2°C
Dew Point 20.7°F-6.3°C 0.1°F-17.7°C 12.7°F-10.7°C
Winds 16.0 mph 25.7 kmh Calm Calm 6.0 mph WSW9.7 kmh WSW
Wind Gusts 22.0 mph35.4 kmh -- 3.0 mph4.8 kmh
Humidity 82% 44% 66%
Pressure 30.40 in1029.5 mb 30.15 in1021.0 mb -
Precipitation 0.00 in0.0 mm - -
Hour Temp Dew Point Humidity Winds Wind Gusts Pressure Precip Precip Rate Daily Precip Total
12:00 AM 10.5°F-11.9°C 1.8°F-16.8°C 67% 9.0 mph W14.5 kmh W -- 30.38 in1028.8 mb 0.00 in0.0 mm 0.00 in0.0 mm 0.00 in0.0 mm
12:05 AM 10.4°F-12.0°C 1.9°F-16.7°C 68% 9.0 mph W14.5 kmh W 14.0 mph22.5 kmh 30.38 in1028.8 mb 0.00 in0.0 mm 0.00 in0.0 mm 0.00 in0.0 mm
12:10 AM 10.2°F-12.1°C 1.8°F-16.8°C 68% 8.0 mph W12.9 kmh W -- 30.38 in1028.8 mb 0.00 in0.0 mm 0.00 in0.0 mm 0.00 in0.0 mm
12:15 AM 10.1°F-12.2°C 1.9°F-16.7°C 69% 12.0 mph W19.3 kmh W -- 30.38 in1028.8 mb 0.00 in0.0 mm 0.00 in0.0 mm 0.00 in0.0 mm
12:20 AM 10.1°F-12.2°C 1.9°F-16.7°C 69% 12.0 mph W19.3 kmh W -- 30.38 in1028.8 mb 0.00 in0.0 mm 0.00 in0.0 mm 0.00 in0.0 mm
12:25 AM 10.0°F-12.2°C 1.9°F-16.7°C 69% 9.0 mph W14.5 kmh W -- 30.38 in1028.8 mb 0.00 in0.0 mm 0.00 in0.0 mm 0.00 in0.0 mm
12:30 AM 9.9°F-12.3°C 2.1°F-16.6°C 70% 9.0 mph W14.5 kmh W 14.0 mph22.5 kmh 30.38 in1028.8 mb 0.00 in0.0 mm 0.00 in0.0 mm 0.00 in0.0 mm
12:35 AM 9.8°F-12.3°C 2.1°F-16.6°C 70% 11.0 mph W17.7 kmh W -- 30.38 in1028.8 mb 0.00 in0.0 mm 0.00 in0.0 mm 0.00 in0.0 mm
12:40 AM 9.7°F-12.4°C 2.1°F-16.6°C 71% 10.0 mph W16.1 kmh W -- 30.39 in1029.1 mb 0.00 in0.0 mm 0.00 in0.0 mm 0.00 in0.0 mm
12:45 AM 9.6°F-12.4°C 2.1°F-16.6°C 71% 9.0 mph W14.5 kmh W -- 30.39 in1029.1 mb 0.00 in0.0 mm 0.00 in0.0 mm 0.00 in0.0 mm
12:50 AM 9.6°F-12.4°C 2.1°F-16.6°C 71% 7.0 mph W11.3 kmh W -- 30.39 in1029.1 mb 0.00 in0.0 mm 0.00 in0.0 mm 0.00 in0.0 mm
12:55 AM 9.5°F-12.5°C 1.9°F-16.7°C 71% 12.0 mph W19.3 kmh W 14.0 mph22.5 kmh 30.39 in1029.1 mb 0.00 in0.0 mm 0.00 in0.0 mm 0.00 in0.0 mm
01:00 AM 9.5°F-12.5°C 1.9°F-16.7°C 71% 6.0 mph W9.7 kmh W -- 30.39 in1029.1 mb 0.00 in0.0 mm 0.00 in0.0 mm 0.00 in0.0 mm
01:05 AM 9.3°F-12.6°C 1.9°F-16.7°C 71% 7.0 mph W11.3 kmh W -- 30.39 in1029.1 mb 0.00 in0.0 mm 0.00 in0.0 mm 0.00 in0.0 mm
01:10 AM 9.2°F-12.7°C 1.9°F-16.7°C 72% 10.0 mph W16.1 kmh W -- 30.39 in1029.1 mb 0.00 in0.0 mm 0.00 in0.0 mm 0.00 in0.0 mm
01:15 AM 9.2°F-12.7°C 1.8°F-16.8°C 71% 9.0 mph W14.5 kmh W -- 30.39 in1029.1 mb 0.00 in0.0 mm 0.00 in0.0 mm 0.00 in0.0 mm
01:20 AM 9.2°F-12.7°C 1.8°F-16.8°C 71% 10.0 mph W16.1 kmh W 14.0 mph22.5 kmh 30.39 in1029.1 mb 0.00 in0.0 mm 0.00 in0.0 mm 0.00 in0.0 mm
01:25 AM 9.2°F-12.7°C 1.4°F-17.0°C 70% 10.0 mph W16.1 kmh W -- 30.39 in1029.1 mb 0.00 in0.0 mm 0.00 in0.0 mm 0.00 in0.0 mm
01:30 AM 9.1°F-12.7°C 1.4°F-17.0°C 70% 6.0 mph W9.7 kmh W -- 30.39 in1029.1 mb 0.00 in0.0 mm 0.00 in0.0 mm 0.00 in0.0 mm
01:35 AM 9.0°F-12.8°C 1.2°F-17.1°C 70% 2.0 mph W3.2 kmh W -- 30.39 in1029.1 mb 0.00 in0.0 mm 0.00 in0.0 mm 0.00 in0.0 mm
01:40 AM 8.9°F-12.8°C 1.6°F-16.9°C 71% 2.0 mph W3.2 kmh W -- 30.39 in1029.1 mb 0.00 in0.0 mm 0.00 in0.0 mm 0.00 in0.0 mm
01:45 AM 8.8°F-12.9°C 1.6°F-16.9°C 72% 6.0 mph W9.7 kmh W 6.0 mph9.7 kmh 30.39 in1029.1 mb 0.00 in0.0 mm 0.00 in0.0 mm 0.00 in0.0 mm
01:50 AM 8.7°F-12.9°C 1.6°F-16.9°C 72% 2.0 mph W3.2 kmh W -- 30.39 in1029.1 mb 0.00 in0.0 mm 0.00 in0.0 mm 0.00 in0.0 mm
01:55 AM 8.6°F-13.0°C 1.4°F-17.0°C 72% 3.0 mph W4.8 kmh W -- 30.39 in1029.1 mb 0.00 in0.0 mm 0.00 in0.0 mm 0.00 in0.0 mm
02:00 AM 8.5°F-13.1°C 1.2°F-17.1°C 72% 4.0 mph W6.4 kmh W -- 30.39 in1029.1 mb 0.00 in0.0 mm 0.00 in0.0 mm 0.00 in0.0 mm
02:05 AM 8.4°F-13.1°C 1.2°F-17.1°C 72% 9.0 mph W14.5 kmh W -- 30.39 in1029.1 mb 0.00 in0.0 mm 0.00 in0.0 mm 0.00 in0.0 mm
02:10 AM 8.4°F-13.1°C 1.6°F-16.9°C 73% 5.0 mph W8.0 kmh W 12.0 mph19.3 kmh 30.39 in1029.1 mb 0.00 in0.0 mm 0.00 in0.0 mm 0.00 in0.0 mm
02:15 AM 8.4°F-13.1°C 1.6°F-16.9°C 73% 5.0 mph W8.0 kmh W -- 30.39 in1029.1 mb 0.00 in0.0 mm 0.00 in0.0 mm 0.00 in0.0 mm
02:20 AM 8.2°F-13.2°C 1.4°F-17.0°C 73% 3.0 mph W4.8 kmh W -- 30.39 in1029.1 mb 0.00 in0.0 mm 0.00 in0.0 mm 0.00 in0.0 mm
02:25 AM 8.1°F-13.3°C 1.2°F-17.1°C 73% 4.0 mph W6.4 kmh W -- 30.39 in1029.1 mb 0.00 in0.0 mm 0.00 in0.0 mm 0.00 in0.0 mm
02:30 AM 8.0°F-13.3°C 1.2°F-17.1°C 73% 5.0 mph W8.0 kmh W -- 30.39 in1029.1 mb 0.00 in0.0 mm 0.00 in0.0 mm 0.00 in0.0 mm
02:35 AM 7.9°F-13.4°C 1.4°F-17.0°C 74% 4.0 mph W6.4 kmh W 11.0 mph17.7 kmh 30.39 in1029.1 mb 0.00 in0.0 mm 0.00 in0.0 mm 0.00 in0.0 mm
02:40 AM 7.9°F-13.4°C 1.0°F-17.2°C 73% 6.0 mph W9.7 kmh W -- 30.39 in1029.1 mb 0.00 in0.0 mm 0.00 in0.0 mm 0.00 in0.0 mm
02:45 AM 7.9°F-13.4°C 1.0°F-17.2°C 73% 9.0 mph W14.5 kmh W -- 30.39 in1029.1 mb 0.00 in0.0 mm 0.00 in0.0 mm 0.00 in0.0 mm
02:50 AM 7.9°F-13.4°C 1.0°F-17.2°C 73% 6.0 mph W9.7 kmh W -- 30.39 in1029.1 mb 0.00 in0.0 mm 0.00 in0.0 mm 0.00 in0.0 mm
02:55 AM 7.8°F-13.4°C 1.0°F-17.2°C 73% 3.0 mph W4.8 kmh W -- 30.39 in1029.1 mb 0.00 in0.0 mm 0.00 in0.0 mm 0.00 in0.0 mm
03:00 AM 7.7°F-13.5°C 0.9°F-17.3°C 73% 4.0 mph W6.4 kmh W 11.0 mph17.7 kmh 30.40 in1029.5 mb 0.00 in0.0 mm 0.00 in0.0 mm 0.00 in0.0 mm
03:05 AM 7.6°F-13.6°C 0.7°F-17.4°C 73% 6.0 mph W9.7 kmh W -- 30.40 in1029.5 mb 0.00 in0.0 mm 0.00 in0.0 mm 0.00 in0.0 mm
03:10 AM 7.5°F-13.6°C 0.7°F-17.4°C 73% 5.0 mph W8.0 kmh W -- 30.40 in1029.5 mb 0.00 in0.0 mm 0.00 in0.0 mm 0.00 in0.0 mm
03:15 AM 7.4°F-13.7°C 0.9°F-17.3°C 74% 1.0 mph W1.6 kmh W -- 30.39 in1029.1 mb 0.00 in0.0 mm 0.00 in0.0 mm 0.00 in0.0 mm
03:20 AM 7.4°F-13.7°C 0.9°F-17.3°C 74% 1.0 mph W1.6 kmh W -- 30.39 in1029.1 mb 0.00 in0.0 mm 0.00 in0.0 mm 0.00 in0.0 mm
03:25 AM 7.3°F-13.7°C 0.9°F-17.3°C 74% 2.0 mph W3.2 kmh W 7.0 mph11.3 kmh 30.39 in1029.1 mb 0.00 in0.0 mm 0.00 in0.0 mm 0.00 in0.0 mm
03:30 AM 7.1°F-13.8°C 0.7°F-17.4°C 74% 3.0 mph W4.8 kmh W -- 30.39 in1029.1 mb 0.00 in0.0 mm 0.00 in0.0 mm 0.00 in0.0 mm
03:35 AM 6.9°F-13.9°C 0.5°F-17.5°C 74% 3.0 mph W4.8 kmh W -- 30.39 in1029.1 mb 0.00 in0.0 mm 0.00 in0.0 mm 0.00 in0.0 mm
03:40 AM 6.9°F-13.9°C 0.5°F-17.5°C 74% 4.0 mph W6.4 kmh W -- 30.39 in1029.1 mb 0.00 in0.0 mm 0.00 in0.0 mm 0.00 in0.0 mm
03:45 AM 6.9°F-13.9°C 0.5°F-17.5°C 74% 4.0 mph W6.4 kmh W -- 30.39 in1029.1 mb 0.00 in0.0 mm 0.00 in0.0 mm 0.00 in0.0 mm
03:50 AM 6.7°F-14.1°C 0.1°F-17.7°C 74% 2.0 mph W3.2 kmh W 6.0 mph9.7 kmh 30.39 in1029.1 mb 0.00 in0.0 mm 0.00 in0.0 mm 0.00 in0.0 mm
03:55 AM 6.6°F-14.1°C 0.1°F-17.7°C 74% 2.0 mph W3.2 kmh W -- 30.39 in1029.1 mb 0.00 in0.0 mm 0.00 in0.0 mm 0.00 in0.0 mm
05:05 PM 31.1°F-0.5°C 12.2°F-11.0°C 45% 16.0 mph SW25.7 kmh SW -- 30.16 in1021.3 mb 0.00 in0.0 mm 0.00 in0.0 mm 0.00 in0.0 mm
05:10 PM 31.1°F-0.5°C 11.8°F-11.2°C 44% 5.0 mph SW8.0 kmh SW 17.0 mph27.4 kmh 30.16 in1021.3 mb 0.00 in0.0 mm 0.00 in0.0 mm 0.00 in0.0 mm
05:15 PM 31.0°F-0.6°C 11.7°F-11.3°C 44% 7.0 mph SW11.3 kmh SW -- 30.16 in1021.3 mb 0.00 in0.0 mm 0.00 in0.0 mm 0.00 in0.0 mm
05:20 PM 31.0°F-0.6°C 12.6°F-10.8°C 46% 5.0 mph SW8.0 kmh SW -- 30.16 in1021.3 mb 0.00 in0.0 mm 0.00 in0.0 mm 0.00 in0.0 mm
05:25 PM 30.9°F-0.6°C 11.7°F-11.3°C 44% 12.0 mph SSW19.3 kmh SSW -- 30.16 in1021.3 mb 0.00 in0.0 mm 0.00 in0.0 mm 0.00 in0.0 mm
05:30 PM 30.9°F-0.6°C 12.0°F-11.1°C 45% 3.0 mph SSW4.8 kmh SSW -- 30.16 in1021.3 mb 0.00 in0.0 mm 0.00 in0.0 mm 0.00 in0.0 mm
05:35 PM 30.8°F-0.7°C 12.0°F-11.1°C 45% 8.0 mph SW12.9 kmh SW 18.0 mph29.0 kmh 30.16 in1021.3 mb 0.00 in0.0 mm 0.00 in0.0 mm 0.00 in0.0 mm
05:40 PM 30.8°F-0.7°C 12.0°F-11.1°C 45% 4.0 mph SW6.4 kmh SW -- 30.16 in1021.3 mb 0.00 in0.0 mm 0.00 in0.0 mm 0.00 in0.0 mm
05:45 PM 30.8°F-0.7°C 12.4°F-10.9°C 46% 9.0 mph SSW14.5 kmh SSW -- 30.16 in1021.3 mb 0.00 in0.0 mm 0.00 in0.0 mm 0.00 in0.0 mm
05:50 PM 30.8°F-0.7°C 12.9°F-10.6°C 47% 6.0 mph SW9.7 kmh SW -- 30.16 in1021.3 mb 0.00 in0.0 mm 0.00 in0.0 mm 0.00 in0.0 mm
05:55 PM 30.7°F-0.7°C 12.4°F-10.9°C 46% 2.0 mph SW3.2 kmh SW -- 30.16 in1021.3 mb 0.00 in0.0 mm 0.00 in0.0 mm 0.00 in0.0 mm
06:00 PM 30.7°F-0.7°C 12.9°F-10.6°C 47% 9.0 mph SW14.5 kmh SW 14.0 mph22.5 kmh 30.16 in1021.3 mb 0.00 in0.0 mm 0.00 in0.0 mm 0.00 in0.0 mm
06:05 PM 30.7°F-0.7°C 13.5°F-10.3°C 48% 14.0 mph SW22.5 kmh SW -- 30.15 in1021.0 mb 0.00 in0.0 mm 0.00 in0.0 mm 0.00 in0.0 mm
06:10 PM 30.7°F-0.7°C 13.8°F-10.1°C 49% 6.0 mph SW9.7 kmh SW -- 30.15 in1021.0 mb 0.00 in0.0 mm 0.00 in0.0 mm 0.00 in0.0 mm
06:15 PM 30.7°F-0.7°C 13.5°F-10.3°C 48% 4.0 mph SW6.4 kmh SW -- 30.15 in1021.0 mb 0.00 in0.0 mm 0.00 in0.0 mm 0.00 in0.0 mm
06:20 PM 30.7°F-0.7°C 13.8°F-10.1°C 49% 14.0 mph SW22.5 kmh SW -- 30.15 in1021.0 mb 0.00 in0.0 mm 0.00 in0.0 mm 0.00 in0.0 mm
06:25 PM 30.6°F-0.8°C 13.6°F-10.2°C 49% 14.0 mph WSW22.5 kmh WSW 20.0 mph32.2 kmh 30.15 in1021.0 mb 0.00 in0.0 mm 0.00 in0.0 mm 0.00 in0.0 mm
06:30 PM 30.5°F-0.8°C 13.6°F-10.2°C 49% 8.0 mph WSW12.9 kmh WSW -- 30.16 in1021.3 mb 0.00 in0.0 mm 0.00 in0.0 mm 0.00 in0.0 mm
06:35 PM 30.4°F-0.9°C 14.0°F-10.0°C 50% 6.0 mph WSW9.7 kmh WSW -- 30.16 in1021.3 mb 0.00 in0.0 mm 0.00 in0.0 mm 0.00 in0.0 mm
06:40 PM 30.4°F-0.9°C 14.9°F-9.5°C 52% 11.0 mph WSW17.7 kmh WSW -- 30.16 in1021.3 mb 0.00 in0.0 mm 0.00 in0.0 mm 0.00 in0.0 mm
06:45 PM 30.2°F-1.0°C 14.7°F-9.6°C 52% 6.0 mph WSW9.7 kmh WSW -- 30.16 in1021.3 mb 0.00 in0.0 mm 0.00 in0.0 mm 0.00 in0.0 mm
06:50 PM 30.0°F-1.1°C 14.9°F-9.5°C 53% 9.0 mph WSW14.5 kmh WSW 14.0 mph22.5 kmh 30.17 in1021.7 mb 0.00 in0.0 mm 0.00 in0.0 mm 0.00 in0.0 mm
06:55 PM 29.9°F-1.2°C 14.9°F-9.5°C 53% 10.0 mph WSW16.1 kmh WSW -- 30.17 in1021.7 mb 0.00 in0.0 mm 0.00 in0.0 mm 0.00 in0.0 mm
07:00 PM 29.8°F-1.2°C 14.9°F-9.5°C 53% 4.0 mph WSW6.4 kmh WSW -- 30.17 in1021.7 mb 0.00 in0.0 mm 0.00 in0.0 mm 0.00 in0.0 mm
07:05 PM 29.7°F-1.3°C 15.1°F-9.4°C 54% 9.0 mph SW14.5 kmh SW -- 30.17 in1021.7 mb 0.00 in0.0 mm 0.00 in0.0 mm 0.00 in0.0 mm
07:10 PM 29.6°F-1.3°C 15.1°F-9.4°C 54% 7.0 mph SW11.3 kmh SW -- 30.17 in1021.7 mb 0.00 in0.0 mm 0.00 in0.0 mm 0.00 in0.0 mm
07:15 PM 29.5°F-1.4°C 14.9°F-9.5°C 54% 3.0 mph SW4.8 kmh SW 15.0 mph24.1 kmh 30.17 in1021.7 mb 0.00 in0.0 mm 0.00 in0.0 mm 0.00 in0.0 mm
07:20 PM 29.4°F-1.4°C 14.9°F-9.5°C 54% 7.0 mph SW11.3 kmh SW -- 30.17 in1021.7 mb 0.00 in0.0 mm 0.00 in0.0 mm 0.00 in0.0 mm
07:25 PM 29.4°F-1.4°C 14.9°F-9.5°C 54% 9.0 mph SW14.5 kmh SW -- 30.17 in1021.7 mb 0.00 in0.0 mm 0.00 in0.0 mm 0.00 in0.0 mm
07:30 PM 29.4°F-1.4°C 14.9°F-9.5°C 54% 13.0 mph WSW20.9 kmh WSW -- 30.17 in1021.7 mb 0.00 in0.0 mm 0.00 in0.0 mm 0.00 in0.0 mm
07:35 PM 29.4°F-1.4°C 14.9°F-9.5°C 54% 10.0 mph SW16.1 kmh SW -- 30.18 in1022.0 mb 0.00 in0.0 mm 0.00 in0.0 mm 0.00 in0.0 mm
07:40 PM 29.4°F-1.4°C 14.9°F-9.5°C 54% 6.0 mph SW9.7 kmh SW 17.0 mph27.4 kmh 30.18 in1022.0 mb 0.00 in0.0 mm 0.00 in0.0 mm 0.00 in0.0 mm
07:45 PM 29.3°F-1.5°C 15.1°F-9.4°C 55% 4.0 mph SW6.4 kmh SW -- 30.18 in1022.0 mb 0.00 in0.0 mm 0.00 in0.0 mm 0.00 in0.0 mm
07:50 PM 29.3°F-1.5°C 14.7°F-9.6°C 54% 3.0 mph SW4.8 kmh SW -- 30.18 in1022.0 mb 0.00 in0.0 mm 0.00 in0.0 mm 0.00 in0.0 mm
07:55 PM 29.3°F-1.5°C 15.1°F-9.4°C 55% 4.0 mph SW6.4 kmh SW -- 30.18 in1022.0 mb 0.00 in0.0 mm 0.00 in0.0 mm 0.00 in0.0 mm
08:00 PM 29.2°F-1.6°C 15.4°F-9.2°C 56% 7.0 mph SW11.3 kmh SW -- 30.19 in1022.4 mb 0.00 in0.0 mm 0.00 in0.0 mm 0.00 in0.0 mm
08:05 PM 29.2°F-1.6°C 15.4°F-9.2°C 56% 8.0 mph SW12.9 kmh SW 17.0 mph27.4 kmh 30.18 in1022.0 mb 0.00 in0.0 mm 0.00 in0.0 mm 0.00 in0.0 mm
08:10 PM 29.1°F-1.6°C 15.4°F-9.2°C 56% 6.0 mph WSW9.7 kmh WSW -- 30.18 in1022.0 mb 0.00 in0.0 mm 0.00 in0.0 mm 0.00 in0.0 mm
08:15 PM 29.1°F-1.6°C 15.8°F-9.0°C 57% 4.0 mph SW6.4 kmh SW -- 30.18 in1022.0 mb 0.00 in0.0 mm 0.00 in0.0 mm 0.00 in0.0 mm
08:20 PM 29.1°F-1.6°C 15.8°F-9.0°C 57% 1.0 mph SW1.6 kmh SW -- 30.19 in1022.4 mb 0.00 in0.0 mm 0.00 in0.0 mm 0.00 in0.0 mm
08:25 PM 29.0°F-1.7°C 15.6°F-9.1°C 57% 5.0 mph WSW8.0 kmh WSW -- 30.19 in1022.4 mb 0.00 in0.0 mm 0.00 in0.0 mm 0.00 in0.0 mm
08:30 PM 29.0°F-1.7°C 16.0°F-8.9°C 58% 6.0 mph WSW9.7 kmh WSW 17.0 mph27.4 kmh 30.19 in1022.4 mb 0.00 in0.0 mm 0.00 in0.0 mm 0.00 in0.0 mm
08:35 PM 28.9°F-1.7°C 16.5°F-8.6°C 59% 5.0 mph SW8.0 kmh SW -- 30.19 in1022.4 mb 0.00 in0.0 mm 0.00 in0.0 mm 0.00 in0.0 mm
08:40 PM 28.9°F-1.7°C 16.5°F-8.6°C 59% 4.0 mph WSW6.4 kmh WSW -- 30.19 in1022.4 mb 0.00 in0.0 mm 0.00 in0.0 mm 0.00 in0.0 mm
08:45 PM 28.8°F-1.8°C 16.7°F-8.5°C 60% 4.0 mph SW6.4 kmh SW -- 30.19 in1022.4 mb 0.00 in0.0 mm 0.00 in0.0 mm 0.00 in0.0 mm
08:50 PM 28.7°F-1.8°C 16.7°F-8.5°C 60% 10.0 mph SW16.1 kmh SW -- 30.19 in1022.4 mb 0.00 in0.0 mm 0.00 in0.0 mm 0.00 in0.0 mm
08:55 PM 28.6°F-1.9°C 16.9°F-8.4°C 61% 6.0 mph SW9.7 kmh SW 22.0 mph35.4 kmh 30.19 in1022.4 mb 0.00 in0.0 mm 0.00 in0.0 mm 0.00 in0.0 mm
09:00 PM 28.5°F-1.9°C 17.6°F-8.0°C 63% 5.0 mph WSW8.0 kmh WSW -- 30.19 in1022.4 mb 0.00 in0.0 mm 0.00 in0.0 mm 0.00 in0.0 mm
09:05 PM 28.4°F-2.0°C 17.8°F-7.9°C 64% 6.0 mph WSW9.7 kmh WSW -- 30.19 in1022.4 mb 0.00 in0.0 mm 0.00 in0.0 mm 0.00 in0.0 mm
09:10 PM 28.3°F-2.1°C 17.6°F-8.0°C 64% 12.0 mph SW19.3 kmh SW -- 30.19 in1022.4 mb 0.00 in0.0 mm 0.00 in0.0 mm 0.00 in0.0 mm
09:15 PM 28.3°F-2.1°C 18.0°F-7.8°C 65% 2.0 mph WSW3.2 kmh WSW -- 30.19 in1022.4 mb 0.00 in0.0 mm 0.00 in0.0 mm 0.00 in0.0 mm
09:20 PM 28.2°F-2.1°C 18.3°F-7.6°C 66% 4.0 mph WSW6.4 kmh WSW 14.0 mph22.5 kmh 30.19 in1022.4 mb 0.00 in0.0 mm 0.00 in0.0 mm 0.00 in0.0 mm
09:25 PM 28.1°F-2.2°C 18.1°F-7.7°C 66% Calm Calm -- 30.20 in1022.7 mb 0.00 in0.0 mm 0.00 in0.0 mm 0.00 in0.0 mm
09:30 PM 28.0°F-2.2°C 18.9°F-7.3°C 68% 9.0 mph SW14.5 kmh SW -- 30.20 in1022.7 mb 0.00 in0.0 mm 0.00 in0.0 mm 0.00 in0.0 mm
09:35 PM 27.8°F-2.3°C 18.7°F-7.4°C 68% 4.0 mph SW6.4 kmh SW -- 30.20 in1022.7 mb 0.00 in0.0 mm 0.00 in0.0 mm 0.00 in0.0 mm
09:40 PM 27.7°F-2.4°C 18.9°F-7.3°C 69% Calm Calm -- 30.20 in1022.7 mb 0.00 in0.0 mm 0.00 in0.0 mm 0.00 in0.0 mm
09:45 PM 27.6°F-2.4°C 19.2°F-7.1°C 70% 3.0 mph SW4.8 kmh SW 16.0 mph25.7 kmh 30.20 in1022.7 mb 0.00 in0.0 mm 0.00 in0.0 mm 0.00 in0.0 mm
09:50 PM 27.5°F-2.5°C 19.4°F-7.0°C 71% 9.0 mph SW14.5 kmh SW -- 30.20 in1022.7 mb 0.00 in0.0 mm 0.00 in0.0 mm 0.00 in0.0 mm
09:55 PM 27.4°F-2.6°C 19.6°F-6.9°C 72% 9.0 mph WSW14.5 kmh WSW -- 30.20 in1022.7 mb 0.00 in0.0 mm 0.00 in0.0 mm 0.00 in0.0 mm
10:00 PM 27.3°F-2.6°C 19.8°F-6.8°C 73% 2.0 mph WSW3.2 kmh WSW -- 30.20 in1022.7 mb 0.00 in0.0 mm 0.00 in0.0 mm 0.00 in0.0 mm
10:05 PM 27.2°F-2.7°C 19.6°F-6.9°C 73% 4.0 mph SW6.4 kmh SW -- 30.20 in1022.7 mb 0.00 in0.0 mm 0.00 in0.0 mm 0.00 in0.0 mm
10:10 PM 27.1°F-2.7°C 19.9°F-6.7°C 74% 9.0 mph WSW14.5 kmh WSW 18.0 mph29.0 kmh 30.20 in1022.7 mb 0.00 in0.0 mm 0.00 in0.0 mm 0.00 in0.0 mm
10:15 PM 27.0°F-2.8°C 19.8°F-6.8°C 74% 6.0 mph WSW9.7 kmh WSW -- 30.21 in1023.0 mb 0.00 in0.0 mm 0.00 in0.0 mm 0.00 in0.0 mm
10:20 PM 26.9°F-2.8°C 20.1°F-6.6°C 75% 9.0 mph SW14.5 kmh SW -- 30.21 in1023.0 mb 0.00 in0.0 mm 0.00 in0.0 mm 0.00 in0.0 mm
10:25 PM 26.8°F-2.9°C 19.9°F-6.7°C 75% 5.0 mph SW8.0 kmh SW -- 30.21 in1023.0 mb 0.00 in0.0 mm 0.00 in0.0 mm 0.00 in0.0 mm
10:30 PM 26.7°F-2.9°C 20.3°F-6.5°C 76% 11.0 mph SW17.7 kmh SW -- 30.20 in1022.7 mb 0.00 in0.0 mm 0.00 in0.0 mm 0.00 in0.0 mm
10:35 PM 26.6°F-3.0°C 20.1°F-6.6°C 76% 12.0 mph SW19.3 kmh SW 17.0 mph27.4 kmh 30.21 in1023.0 mb 0.00 in0.0 mm 0.00 in0.0 mm 0.00 in0.0 mm
10:40 PM 26.4°F-3.1°C 20.1°F-6.6°C 77% 11.0 mph SW17.7 kmh SW -- 30.21 in1023.0 mb 0.00 in0.0 mm 0.00 in0.0 mm 0.00 in0.0 mm
10:45 PM 26.3°F-3.2°C 20.3°F-6.5°C 78% 11.0 mph WSW17.7 kmh WSW -- 30.21 in1023.0 mb 0.00 in0.0 mm 0.00 in0.0 mm 0.00 in0.0 mm
10:50 PM 26.2°F-3.2°C 20.3°F-6.5°C 78% 5.0 mph SW8.0 kmh SW -- 30.21 in1023.0 mb 0.00 in0.0 mm 0.00 in0.0 mm 0.00 in0.0 mm
10:55 PM 26.0°F-3.3°C 20.1°F-6.6°C 78% 12.0 mph WSW19.3 kmh WSW -- 30.20 in1022.7 mb 0.00 in0.0 mm 0.00 in0.0 mm 0.00 in0.0 mm
11:00 PM 25.9°F-3.4°C 20.3°F-6.5°C 79% 7.0 mph SW11.3 kmh SW 15.0 mph24.1 kmh 30.20 in1022.7 mb 0.00 in0.0 mm 0.00 in0.0 mm 0.00 in0.0 mm
11:05 PM 25.8°F-3.4°C 20.3°F-6.5°C 79% 4.0 mph WSW6.4 kmh WSW -- 30.20 in1022.7 mb 0.00 in0.0 mm 0.00 in0.0 mm 0.00 in0.0 mm
11:10 PM 25.7°F-3.5°C 20.1°F-6.6°C 79% 7.0 mph SW11.3 kmh SW -- 30.19 in1022.4 mb 0.00 in0.0 mm 0.00 in0.0 mm 0.00 in0.0 mm
11:15 PM 25.7°F-3.5°C 20.1°F-6.6°C 79% 5.0 mph SW8.0 kmh SW -- 30.20 in1022.7 mb 0.00 in0.0 mm 0.00 in0.0 mm 0.00 in0.0 mm
11:20 PM 25.5°F-3.6°C 20.3°F-6.5°C 80% 5.0 mph SW8.0 kmh SW -- 30.20 in1022.7 mb 0.00 in0.0 mm 0.00 in0.0 mm 0.00 in0.0 mm
11:25 PM 25.5°F-3.6°C 20.3°F-6.5°C 80% 2.0 mph WSW3.2 kmh WSW 15.0 mph24.1 kmh 30.20 in1022.7 mb 0.00 in0.0 mm 0.00 in0.0 mm 0.00 in0.0 mm
11:30 PM 25.5°F-3.6°C 20.3°F-6.5°C 80% 4.0 mph WSW6.4 kmh WSW -- 30.20 in1022.7 mb 0.00 in0.0 mm 0.00 in0.0 mm 0.00 in0.0 mm
11:35 PM 25.5°F-3.6°C 20.5°F-6.4°C 81% 6.0 mph WSW9.7 kmh WSW -- 30.20 in1022.7 mb 0.00 in0.0 mm 0.00 in0.0 mm 0.00 in0.0 mm
11:40 PM 25.4°F-3.7°C 20.3°F-6.5°C 81% 6.0 mph SW9.7 kmh SW -- 30.20 in1022.7 mb 0.00 in0.0 mm 0.00 in0.0 mm 0.00 in0.0 mm
11:45 PM 25.4°F-3.7°C 20.3°F-6.5°C 81% 9.0 mph SW14.5 kmh SW -- 30.20 in1022.7 mb 0.00 in0.0 mm 0.00 in0.0 mm 0.00 in0.0 mm
11:50 PM 25.4°F-3.7°C 20.3°F-6.5°C 81% 4.0 mph SW6.4 kmh SW 15.0 mph24.1 kmh 30.20 in1022.7 mb 0.00 in0.0 mm 0.00 in0.0 mm 0.00 in0.0 mm
11:55 PM 25.4°F-3.7°C 20.3°F-6.5°C 81% 9.0 mph SW14.5 kmh SW -- 30.20 in1022.7 mb 0.00 in0.0 mm 0.00 in0.0 mm 0.00 in0.0 mm